createdAt,value
2022-08-03T00:02:15.287Z,29653.98
2022-08-03T00:04:42.225Z,29636.47
2022-08-03T00:07:08.920Z,29659.54
2022-08-03T00:09:36.003Z,29806.46
2022-08-03T00:12:02.896Z,29693.26
2022-08-03T00:14:29.724Z,29599.83
2022-08-03T00:16:56.512Z,29744.30
2022-08-03T00:19:23.178Z,30040.23
2022-08-03T00:21:50.064Z,29788.54
2022-08-03T00:24:16.819Z,29562.50
2022-08-03T00:26:43.547Z,29958.71
2022-08-03T00:29:10.215Z,29781.35
2022-08-03T00:31:44.956Z,29764.10
2022-08-03T00:34:29.866Z,29898.84
2022-08-03T00:37:03.432Z,29806.17
2022-08-03T00:39:30.151Z,29689.94
2022-08-03T00:42:02.684Z,29706.87
2022-08-03T00:44:29.370Z,29495.25
2022-08-03T00:46:56.089Z,29607.21
2022-08-03T00:49:23.771Z,29712.09
2022-08-03T00:51:51.050Z,29542.97
2022-08-03T00:54:17.969Z,29877.31
2022-08-03T00:57:00.263Z,29972.03
2022-08-03T00:59:27.547Z,30002.46
2022-08-03T01:01:54.262Z,30137.18
2022-08-03T01:04:20.938Z,29897.03
2022-08-03T01:07:14.215Z,30220.12
2022-08-03T01:09:49.987Z,29999.10
2022-08-03T01:12:38.881Z,30414.26
2022-08-03T01:15:08.484Z,30131.74
2022-08-03T01:17:59.407Z,29814.89
2022-08-03T01:20:33.395Z,30185.66
2022-08-03T01:23:10.468Z,30005.45
2022-08-03T01:26:14.351Z,29854.38
2022-08-03T01:28:53.205Z,29888.50
2022-08-03T01:31:28.527Z,29850.91
2022-08-03T01:34:03.278Z,29993.60
2022-08-03T01:36:37.889Z,30057.55
2022-08-03T01:39:06.897Z,29993.83
2022-08-03T01:41:38.949Z,30262.13
2022-08-03T01:44:30.231Z,30240.27
2022-08-03T01:47:01.086Z,30175.14
2022-08-03T01:49:30.647Z,30297.96
2022-08-03T01:52:05.022Z,30395.40
2022-08-03T01:54:43.033Z,30269.71
2022-08-03T01:57:10.858Z,30075.51
2022-08-03T01:59:40.028Z,30248.56
2022-08-03T02:02:32.145Z,30416.92
2022-08-03T02:05:01.322Z,30311.75
2022-08-03T02:07:30.327Z,30577.03
2022-08-03T02:10:00.118Z,30407.48
2022-08-03T02:12:28.664Z,30115.60
2022-08-03T02:14:57.714Z,29803.16
2022-08-03T02:17:39.650Z,30215.64
2022-08-03T02:20:11.006Z,30255.25
2022-08-03T02:22:42.008Z,30370.09
2022-08-03T02:25:12.203Z,30216.19
2022-08-03T02:27:46.148Z,30033.44
2022-08-03T02:30:13.306Z,30447.87
2022-08-03T02:32:44.053Z,30163.49
2022-08-03T02:35:15.365Z,30521.47
2022-08-03T02:37:50.155Z,30668.05
2022-08-03T02:40:20.325Z,30516.54
2022-08-03T02:42:51.814Z,30886.39
2022-08-03T02:45:21.166Z,30416.21
2022-08-03T02:47:53.827Z,30703.15
2022-08-03T02:50:24.409Z,30249.14
2022-08-03T02:52:54.925Z,30072.78
2022-08-03T02:55:26.261Z,30391.21
2022-08-03T02:57:55.836Z,30408.18
2022-08-03T03:00:28.040Z,30187.89
2022-08-03T03:03:02.484Z,30535.23
2022-08-03T03:05:55.200Z,30697.67
2022-08-03T03:08:26.115Z,30071.01
2022-08-03T03:10:58.216Z,30153.83
2022-08-03T03:13:28.339Z,30150.44
2022-08-03T03:15:59.527Z,30101.44
2022-08-03T03:18:31.076Z,30171.13
2022-08-03T03:21:01.815Z,30217.47
2022-08-03T03:23:28.993Z,29955.82
2022-08-03T03:25:56.796Z,30040.07
2022-08-03T03:28:25.511Z,29881.47
2022-08-03T03:30:53.460Z,30265.50
2022-08-03T03:33:22.081Z,30072.98
2022-08-03T03:35:50.070Z,30268.95
2022-08-03T03:38:16.885Z,30076.94
2022-08-03T03:40:44.074Z,30012.36
2022-08-03T03:43:12.771Z,30171.81
2022-08-03T03:45:43.321Z,30014.86
2022-08-03T03:48:10.234Z,30122.25
2022-08-03T03:50:38.081Z,30248.70
2022-08-03T03:53:05.000Z,30571.03
2022-08-03T03:55:59.388Z,30838.81
2022-08-03T03:58:27.756Z,30589.67
2022-08-03T04:00:54.566Z,30111.81
2022-08-03T04:03:21.481Z,30424.93
2022-08-03T04:05:48.307Z,30485.90
2022-08-03T04:08:17.775Z,30400.41
2022-08-03T04:11:03.802Z,30352.16
2022-08-03T04:13:53.671Z,30301.47
2022-08-03T04:16:25.223Z,30333.91
2022-08-03T04:19:00.843Z,30230.65
2022-08-03T04:21:30.586Z,30109.63
2022-08-03T04:24:03.442Z,30293.99
2022-08-03T04:26:36.235Z,30219.55
2022-08-03T04:29:05.844Z,30137.58
2022-08-03T04:31:34.310Z,29937.47
2022-08-03T04:34:02.790Z,29865.60
2022-08-03T04:36:33.889Z,29975.13
2022-08-03T04:39:04.379Z,30090.84
2022-08-03T04:42:07.165Z,30558.82
2022-08-03T04:44:28.363Z,30422.34
2022-08-03T04:46:57.556Z,30089.68
2022-08-03T04:49:25.997Z,30078.07
2022-08-03T04:51:53.264Z,29948.68
2022-08-03T04:54:20.053Z,30295.26
2022-08-03T04:56:46.729Z,30380.94
2022-08-03T04:59:13.545Z,30023.52
2022-08-03T05:01:41.150Z,30053.84
2022-08-03T05:04:08.155Z,29910.51
2022-08-03T05:06:34.882Z,30065.10
2022-08-03T05:09:02.101Z,29679.68
2022-08-03T05:11:28.748Z,30106.43
2022-08-03T05:13:55.560Z,29884.09
2022-08-03T05:16:22.236Z,30306.82
2022-08-03T05:18:48.922Z,30459.99
2022-08-03T05:21:15.559Z,30071.56
2022-08-03T05:23:43.129Z,30248.14
2022-08-03T05:26:09.850Z,30103.65
2022-08-03T05:28:36.536Z,30281.83
2022-08-03T05:31:03.295Z,30418.58
2022-08-03T05:33:30.111Z,30121.27
2022-08-03T05:36:03.078Z,30140.73
2022-08-03T05:38:35.035Z,30290.50
2022-08-03T05:41:22.974Z,30336.88
2022-08-03T05:43:54.970Z,30442.35
2022-08-03T05:46:24.845Z,30344.71
2022-08-03T05:48:52.176Z,30562.34
2022-08-03T05:51:18.975Z,30566.96
2022-08-03T05:53:46.032Z,30162.45
2022-08-03T05:56:14.508Z,30175.19
2022-08-03T05:58:50.283Z,30133.16
2022-08-03T06:01:18.246Z,30291.73
2022-08-03T06:03:45.731Z,29985.51
2022-08-03T06:06:12.567Z,29790.32
2022-08-03T06:08:40.651Z,29881.69
2022-08-03T06:11:07.904Z,29699.34
2022-08-03T06:13:35.289Z,29954.71
2022-08-03T06:16:02.499Z,29958.17
2022-08-03T06:18:29.328Z,30140.56
2022-08-03T06:20:56.074Z,29933.84
2022-08-03T06:23:25.335Z,29811.71
2022-08-03T06:26:10.609Z,29658.64
2022-08-03T06:28:52.264Z,29453.41
2022-08-03T06:31:21.372Z,29286.90
2022-08-03T06:34:30.509Z,30436.19
2022-08-03T06:36:35.135Z,29578.41
2022-08-03T06:39:02.671Z,29205.65
2022-08-03T06:41:29.359Z,28782.50
2022-08-03T06:44:02.652Z,28728.29
2022-08-03T06:46:31.097Z,28859.57
2022-08-03T06:48:57.934Z,29093.73
2022-08-03T06:52:04.029Z,28816.03
2022-08-03T06:54:11.460Z,28903.84
2022-08-03T06:56:38.356Z,28724.41
2022-08-03T06:59:05.249Z,28480.67
2022-08-03T07:01:32.024Z,28976.19
2022-08-03T07:03:58.824Z,28762.02
2022-08-03T07:06:25.554Z,28875.72
2022-08-03T07:08:55.413Z,28749.62
2022-08-03T07:11:23.465Z,28781.23
2022-08-03T07:13:50.214Z,28849.38
2022-08-03T07:16:17.003Z,29226.67
2022-08-03T07:18:44.520Z,29257.28
2022-08-03T07:21:11.869Z,28892.84
2022-08-03T07:23:38.910Z,28648.56
2022-08-03T07:26:05.622Z,28784.36
2022-08-03T07:28:32.306Z,28966.96
2022-08-03T07:30:59.027Z,28730.55
2022-08-03T07:33:25.717Z,28640.20
2022-08-03T07:35:52.431Z,29023.03
2022-08-03T07:38:21.005Z,28697.51
2022-08-03T07:40:48.291Z,28915.67
2022-08-03T07:43:15.002Z,28830.81
2022-08-03T07:45:41.692Z,28813.30
2022-08-03T07:48:12.083Z,29011.93
2022-08-03T07:50:39.310Z,28894.38
2022-08-03T07:53:06.088Z,29057.45
2022-08-03T07:55:32.858Z,28966.79
2022-08-03T07:58:02.597Z,28907.43
2022-08-03T08:00:29.345Z,28684.32
2022-08-03T08:02:56.178Z,28711.45
2022-08-03T08:05:22.877Z,29148.62
2022-08-03T08:07:51.759Z,28688.82
2022-08-03T08:10:19.178Z,28951.01
2022-08-03T08:12:45.959Z,29346.00
2022-08-03T08:15:12.615Z,28928.02
2022-08-03T08:17:48.057Z,28895.24
2022-08-03T08:20:27.996Z,28842.82
2022-08-03T08:23:03.540Z,29159.18
2022-08-03T08:25:38.857Z,29078.81
2022-08-03T08:28:31.516Z,28948.79
2022-08-03T08:30:52.275Z,29492.39
2022-08-03T08:33:22.606Z,29690.47
2022-08-03T08:35:51.298Z,29227.63
2022-08-03T08:38:17.982Z,29424.56
2022-08-03T08:40:45.024Z,29421.68
2022-08-03T08:43:11.786Z,29292.77
2022-08-03T08:45:38.695Z,29308.87
2022-08-03T08:48:09.455Z,29315.82
2022-08-03T08:50:38.747Z,29596.37
2022-08-03T08:53:17.537Z,29761.54
2022-08-03T08:55:58.324Z,29204.86
2022-08-03T08:58:30.337Z,29242.60
2022-08-03T09:00:57.290Z,29855.17
2022-08-03T09:03:30.222Z,29554.87
2022-08-03T09:06:01.631Z,29556.63
2022-08-03T09:08:34.125Z,28925.21
2022-08-03T09:11:01.955Z,29799.00
2022-08-03T09:13:28.976Z,29815.10
2022-08-03T09:16:15.567Z,30085.62
2022-08-03T09:18:45.087Z,29022.74
2022-08-03T09:21:34.303Z,28967.85
2022-08-03T09:24:06.348Z,29677.56
2022-08-03T09:26:37.036Z,29271.10
2022-08-03T09:29:13.919Z,30187.77
2022-08-03T09:31:45.049Z,29708.06
2022-08-03T09:34:17.499Z,29280.64
2022-08-03T09:36:50.361Z,29463.41
2022-08-03T09:39:19.846Z,29226.23
2022-08-03T09:42:14.455Z,28924.44
2022-08-03T09:44:47.122Z,28925.37
2022-08-03T09:47:16.867Z,29036.81
2022-08-03T09:49:57.896Z,29276.68
2022-08-03T09:52:49.799Z,29393.26
2022-08-03T09:56:31.574Z,29435.78
2022-08-03T09:58:08.861Z,29578.64
2022-08-03T10:01:04.559Z,29998.13
2022-08-03T10:03:35.172Z,29482.02
2022-08-03T10:06:16.668Z,29873.95
2022-08-03T10:08:43.330Z,29355.38
2022-08-03T10:11:10.005Z,29578.91
2022-08-03T10:13:37.792Z,29670.62
2022-08-03T10:16:21.201Z,29922.75
2022-08-03T10:18:51.017Z,30582.39
2022-08-03T10:21:20.149Z,29626.17
2022-08-03T10:23:49.801Z,30085.24
2022-08-03T10:26:22.427Z,30139.54
2022-08-03T10:28:53.810Z,30490.01
2022-08-03T10:31:23.834Z,29971.49
2022-08-03T10:33:56.541Z,29941.08
2022-08-03T10:36:28.223Z,30296.70
2022-08-03T10:38:57.111Z,30609.29
2022-08-03T10:41:31.865Z,29853.38
2022-08-03T10:44:17.736Z,30390.77
2022-08-03T10:46:47.179Z,30580.06
2022-08-03T10:49:31.868Z,30266.06
2022-08-03T10:52:08.411Z,29993.56
2022-08-03T10:54:44.448Z,29822.96
2022-08-03T10:57:43.530Z,29761.88
2022-08-03T11:00:21.270Z,30365.88
2022-08-03T11:03:06.156Z,30454.61
2022-08-03T11:05:38.809Z,30393.54
2022-08-03T11:08:19.466Z,30156.38
2022-08-03T11:10:49.111Z,30666.23
2022-08-03T11:13:18.478Z,29826.36
2022-08-03T11:15:48.911Z,29620.89
2022-08-03T11:18:16.129Z,29792.23
2022-08-03T11:20:48.377Z,30147.65
2022-08-03T11:23:16.798Z,29733.06
2022-08-03T11:26:14.581Z,30162.02
2022-08-03T11:28:43.728Z,29783.88
2022-08-03T11:31:49.352Z,29595.99
2022-08-03T11:34:16.923Z,29734.46
2022-08-03T11:37:23.020Z,29888.52
2022-08-03T11:39:52.837Z,29706.74
2022-08-03T11:42:22.415Z,29531.92
2022-08-03T11:44:50.296Z,29600.46
2022-08-03T11:47:18.199Z,29451.17
2022-08-03T11:49:49.881Z,29553.71
2022-08-03T11:52:17.788Z,29570.13
2022-08-03T11:54:44.864Z,29473.79
2022-08-03T11:57:11.913Z,29515.44
2022-08-03T11:59:38.856Z,29295.22
2022-08-03T12:02:11.095Z,29716.99
2022-08-03T12:05:09.949Z,29741.59
2022-08-03T12:08:04.957Z,29799.81
2022-08-03T12:10:33.355Z,29573.16
2022-08-03T12:13:02.294Z,29554.56
2022-08-03T12:15:31.748Z,29770.94
2022-08-03T12:17:58.484Z,29577.56
2022-08-03T12:20:34.640Z,29664.40
2022-08-03T12:23:04.746Z,29616.52
2022-08-03T12:25:39.141Z,29589.79
2022-08-03T12:28:36.099Z,29341.60
2022-08-03T12:31:08.906Z,29564.36
2022-08-03T12:33:59.003Z,29678.83
2022-08-03T12:36:27.046Z,29474.55
2022-08-03T12:39:04.025Z,29368.08
2022-08-03T12:41:34.408Z,29871.42
2022-08-03T12:44:02.260Z,29303.41
2022-08-03T12:46:41.652Z,29569.61
2022-08-03T12:49:13.864Z,29239.17
2022-08-03T12:51:43.562Z,29862.96
2022-08-03T12:54:24.746Z,29566.31
2022-08-03T12:57:06.959Z,30002.72
2022-08-03T12:59:40.778Z,29654.32
2022-08-03T13:02:19.868Z,29583.75
2022-08-03T13:04:52.443Z,29437.78
2022-08-03T13:07:21.492Z,29373.00
2022-08-03T13:09:53.828Z,29525.47
2022-08-03T13:12:29.249Z,29307.68
2022-08-03T13:14:58.928Z,29830.40
2022-08-03T13:17:27.100Z,29415.45
2022-08-03T13:19:54.194Z,29284.41
2022-08-03T13:22:26.095Z,29300.42
2022-08-03T13:24:55.049Z,29156.49
2022-08-03T13:28:01.662Z,29384.02
2022-08-03T13:30:09.430Z,29560.59
2022-08-03T13:32:36.666Z,29777.01
2022-08-03T13:35:04.106Z,29819.93
2022-08-03T13:37:31.559Z,29017.22
2022-08-03T13:40:02.717Z,29770.82
2022-08-03T13:42:32.193Z,30053.92
2022-08-03T13:45:00.090Z,29772.01
2022-08-03T13:47:27.675Z,29706.32
2022-08-03T13:49:59.803Z,29863.90
2022-08-03T13:52:33.341Z,29994.49
2022-08-03T13:55:00.879Z,30296.46
2022-08-03T13:58:04.904Z,30469.61
2022-08-03T14:00:26.251Z,30203.66
2022-08-03T14:03:03.943Z,29771.73
2022-08-03T14:05:33.120Z,30311.80
2022-08-03T14:08:04.222Z,29515.28
2022-08-03T14:10:32.944Z,30007.23
2022-08-03T14:12:59.643Z,29591.96
2022-08-03T14:15:26.771Z,29572.36
2022-08-03T14:17:53.424Z,29609.90
2022-08-03T14:20:36.425Z,29899.58
2022-08-03T14:23:08.701Z,29721.98
2022-08-03T14:25:44.474Z,29255.33
2022-08-03T14:28:21.656Z,29255.58
2022-08-03T14:30:48.683Z,29902.79
2022-08-03T14:33:15.739Z,28954.53
2022-08-03T14:35:42.548Z,29457.86
2022-08-03T14:38:09.236Z,29655.66
2022-08-03T14:40:35.974Z,29848.73
2022-08-03T14:43:02.703Z,29169.06
2022-08-03T14:45:29.370Z,29237.59
2022-08-03T14:50:29.394Z,29038.68
2022-08-03T14:50:48.383Z,29012.92
2022-08-03T14:53:17.617Z,29303.00
2022-08-03T14:55:50.813Z,29258.22
2022-08-03T14:58:27.143Z,29459.28
2022-08-03T15:00:55.851Z,29214.10
2022-08-03T15:03:24.745Z,29027.90
2022-08-03T15:05:53.203Z,29151.54
2022-08-03T15:08:20.470Z,29378.61
2022-08-03T15:10:47.325Z,29329.60
2022-08-03T15:13:17.090Z,29314.79
2022-08-03T15:15:43.822Z,29089.33
2022-08-03T15:18:10.966Z,29068.18
2022-08-03T15:20:46.997Z,29062.39
2022-08-03T15:23:15.618Z,29053.00
2022-08-03T15:26:28.550Z,29183.52
2022-08-03T15:28:33.471Z,29122.25
2022-08-03T15:31:01.425Z,29174.91
2022-08-03T15:33:29.099Z,29113.06
2022-08-03T15:35:57.173Z,29042.57
2022-08-03T15:38:26.870Z,29244.21
2022-08-03T15:40:54.846Z,29233.82
2022-08-03T15:43:22.297Z,28876.53
2022-08-03T15:45:54.639Z,29273.47
2022-08-03T15:48:35.669Z,28979.95
2022-08-03T15:51:02.347Z,29094.29
2022-08-03T15:53:29.021Z,29355.12
2022-08-03T15:55:55.705Z,28850.91
2022-08-03T15:59:09.608Z,29261.79
2022-08-03T16:01:09.197Z,29035.02
2022-08-03T16:03:35.934Z,28980.00
2022-08-03T16:06:06.344Z,29238.80
2022-08-03T16:08:34.007Z,29028.19
2022-08-03T16:11:01.333Z,29282.92
2022-08-03T16:14:13.820Z,29264.61
2022-08-03T16:16:14.917Z,29258.71
2022-08-03T16:18:41.619Z,29343.71
2022-08-03T16:21:08.426Z,29259.87
2022-08-03T16:23:39.171Z,29172.74
2022-08-03T16:26:09.500Z,29269.03
2022-08-03T16:28:36.180Z,29133.67
2022-08-03T16:31:02.826Z,29707.83
2022-08-03T16:33:30.645Z,29153.08
2022-08-03T16:35:57.532Z,29236.05
2022-08-03T16:38:24.269Z,29220.91
2022-08-03T16:40:51.328Z,29631.55
2022-08-03T16:43:19.835Z,28982.22
2022-08-03T16:45:48.101Z,28980.42
2022-08-03T16:48:16.525Z,29555.01
2022-08-03T16:50:44.264Z,29429.06
2022-08-03T16:53:16.388Z,29436.93
2022-08-03T16:55:53.960Z,29185.61
2022-08-03T16:58:41.525Z,29440.66
2022-08-03T17:01:21.687Z,29068.56
2022-08-03T17:04:04.750Z,29317.30
2022-08-03T17:06:35.659Z,29512.50
2022-08-03T17:09:11.982Z,29507.90
2022-08-03T17:11:47.175Z,29225.87
2022-08-03T17:14:16.782Z,29410.12
2022-08-03T17:16:53.043Z,29390.55
2022-08-03T17:19:24.530Z,29779.72
2022-08-03T17:22:04.891Z,29747.31
2022-08-03T17:24:33.354Z,29235.43
2022-08-03T17:27:09.021Z,29878.19
2022-08-03T17:29:51.296Z,30078.50
2022-08-03T17:32:21.647Z,29863.42
2022-08-03T17:34:49.011Z,30479.64
2022-08-03T17:37:27.021Z,30217.93
2022-08-03T17:40:04.214Z,29863.72
2022-08-03T17:42:33.238Z,30562.37
2022-08-03T17:45:03.848Z,30511.46
2022-08-03T17:47:41.848Z,29550.33
2022-08-03T17:50:25.230Z,30261.39
2022-08-03T17:53:15.395Z,29879.28
2022-08-03T17:59:51.629Z,30203.96
2022-08-03T18:02:38.850Z,29908.32
2022-08-03T18:05:17.580Z,29896.58
2022-08-03T18:07:49.592Z,30598.92
2022-08-03T18:10:26.364Z,29840.97
2022-08-03T18:12:54.372Z,30171.69
2022-08-03T18:15:28.684Z,29656.94
2022-08-03T18:18:10.931Z,30379.13
2022-08-03T18:20:41.564Z,29912.50
2022-08-03T18:23:25.121Z,29915.07
2022-08-03T18:26:07.756Z,29876.12
2022-08-03T18:28:39.672Z,29876.80
2022-08-03T18:31:11.623Z,30071.72
2022-08-03T18:34:17.950Z,29849.93
2022-08-03T18:36:29.999Z,29818.56
2022-08-03T18:38:59.525Z,29415.31
2022-08-03T18:41:33.484Z,29704.11
2022-08-03T18:44:07.120Z,29853.86
2022-08-03T18:46:35.868Z,29840.73
2022-08-03T18:49:38.538Z,29664.27
2022-08-03T18:52:21.639Z,29699.22
2022-08-03T18:55:01.061Z,29574.05
2022-08-03T18:58:06.340Z,29740.69
2022-08-03T19:00:54.266Z,29753.90
2022-08-03T19:03:25.515Z,29635.98
2022-08-03T19:06:20.054Z,29884.33
2022-08-03T19:09:04.272Z,29856.94
2022-08-03T19:12:14.441Z,29642.35
2022-08-03T19:14:43.129Z,29670.13
2022-08-03T19:17:12.273Z,29866.39
2022-08-03T19:19:44.993Z,29705.05
2022-08-03T19:22:16.303Z,29775.97
2022-08-03T19:24:46.233Z,30021.58
2022-08-03T19:27:15.872Z,29853.96
2022-08-03T19:29:58.924Z,30023.92
2022-08-03T19:32:30.065Z,30333.49
2022-08-03T19:34:59.603Z,30390.62
2022-08-03T19:37:38.639Z,30845.98
2022-08-03T19:40:14.493Z,30871.84
2022-08-03T19:42:53.180Z,30759.91
2022-08-03T19:46:04.881Z,31082.28
2022-08-03T19:48:20.454Z,30465.28
2022-08-03T19:50:53.094Z,30990.20
2022-08-03T19:53:20.551Z,31071.03
2022-08-03T19:55:54.168Z,30962.98
2022-08-03T19:58:29.879Z,30837.46
2022-08-03T20:00:56.675Z,30768.88
2022-08-03T20:03:27.352Z,30696.35
2022-08-03T20:06:10.578Z,30555.86
2022-08-03T20:08:44.101Z,30669.23
2022-08-03T20:11:11.476Z,30771.84
2022-08-03T20:13:39.155Z,30973.31
2022-08-03T20:16:06.376Z,30747.92
2022-08-03T20:18:39.277Z,30816.43
2022-08-03T20:21:14.800Z,30956.38
2022-08-03T20:24:03.381Z,30644.44
2022-08-03T20:26:33.466Z,30650.80
2022-08-03T20:29:09.930Z,30416.40
2022-08-03T20:31:37.516Z,30985.66
2022-08-03T20:34:06.739Z,30610.78
2022-08-03T20:36:33.533Z,30935.64
2022-08-03T20:39:00.611Z,30764.15
2022-08-03T20:41:27.432Z,30448.74
2022-08-03T20:43:54.358Z,30780.66
2022-08-03T20:46:31.802Z,30397.08
2022-08-03T20:49:03.980Z,30648.59
2022-08-03T20:51:52.715Z,30587.02
2022-08-03T20:54:31.353Z,30140.48
2022-08-03T20:57:00.465Z,30584.79
2022-08-03T20:59:27.327Z,30842.08
2022-08-03T21:01:54.769Z,30642.86
2022-08-03T21:04:21.661Z,30625.44
2022-08-03T21:06:54.276Z,30778.93
2022-08-03T21:09:39.785Z,30380.66
2022-08-03T21:12:12.113Z,30841.44
2022-08-03T21:13:04.598Z,29692.48
2022-08-03T21:14:51.925Z,31158.11
2022-08-03T21:17:39.228Z,30934.95
2022-08-03T21:20:09.489Z,31302.86
2022-08-03T21:22:39.139Z,31016.77
2022-08-03T21:25:08.926Z,31398.71
2022-08-03T21:27:37.024Z,30762.21
2022-08-03T21:30:09.711Z,31323.27
2022-08-03T21:32:37.153Z,31053.11
2022-08-03T21:35:04.321Z,30950.60
2022-08-03T21:37:31.161Z,31137.83
2022-08-03T21:39:58.009Z,31255.71
2022-08-03T21:42:24.987Z,30819.37
2022-08-03T21:44:52.972Z,31181.59
2022-08-03T21:47:23.620Z,31224.43
2022-08-03T21:50:08.830Z,31143.07
2022-08-03T21:52:44.464Z,30882.46
2022-08-03T21:55:20.439Z,30732.47
2022-08-03T21:57:53.481Z,30552.00
2022-08-03T22:00:22.892Z,30262.92
2022-08-03T22:02:57.468Z,30466.84
2022-08-03T22:05:42.733Z,30555.86
2022-08-03T22:08:14.205Z,30563.34
2022-08-03T22:10:44.673Z,30356.94
2022-08-03T22:13:14.352Z,30595.72
2022-08-03T22:15:42.219Z,30223.89
2022-08-03T22:18:09.901Z,30424.29
2022-08-03T22:20:37.396Z,30683.60
2022-08-03T22:23:06.388Z,30168.00
2022-08-03T22:25:38.268Z,30358.99
2022-08-03T22:28:12.053Z,30595.04
2022-08-03T22:30:40.472Z,30653.36
2022-08-03T22:33:11.804Z,30791.95
2022-08-03T22:35:50.211Z,30526.60
2022-08-03T22:38:18.610Z,30706.53
2022-08-03T22:40:48.233Z,30839.32
2022-08-03T22:43:16.038Z,30756.78
2022-08-03T22:46:08.970Z,30855.08
2022-08-03T22:48:40.989Z,31105.04
2022-08-03T22:51:09.103Z,30372.75
2022-08-03T22:53:36.156Z,30420.50
2022-08-03T22:56:03.467Z,30395.25
2022-08-03T22:58:30.134Z,30538.37
2022-08-03T23:01:08.547Z,30336.43
2022-08-03T23:04:01.150Z,30424.33
2022-08-03T23:06:36.910Z,30417.88
2022-08-03T23:09:10.302Z,30596.25
2022-08-03T23:11:45.607Z,30493.38
2022-08-03T23:14:15.779Z,30722.08
2022-08-03T23:16:46.256Z,30521.98
2022-08-03T23:19:17.430Z,30567.60
2022-08-03T23:22:02.513Z,30435.83
2022-08-03T23:24:34.204Z,30639.44
2022-08-03T23:27:03.716Z,30437.25
2022-08-03T23:29:33.652Z,30542.58
2022-08-03T23:32:01.841Z,30518.33
2022-08-03T23:34:30.741Z,30546.37
2022-08-03T23:37:01.191Z,30439.89
2022-08-03T23:39:34.999Z,30486.49
2022-08-03T23:42:03.131Z,30590.67
2022-08-03T23:44:33.225Z,30653.34
2022-08-03T23:47:00.097Z,30456.89
2022-08-03T23:49:26.762Z,30686.02
2022-08-03T23:52:19.132Z,30525.51
2022-08-03T23:55:03.390Z,30427.68
2022-08-03T23:57:36.859Z,30459.51
